Plainfield, Illinois
Current Conditions -  °F | °C
As of 9:15 AM on Saturday 22 Nov 2014 (Local Time) from KLOT Reporting Station
Overcast Overcast  
Wind Chill: 33°   Ceiling: 1300
Heat Index: 40°   Visibility: 7mi
Dew Point: 36°   Wind: 12mph
Humidity: 86%   Direction: 210°SSW
Pressure: 30.01"   Gusts: NA
Location:  41.62°N, 88.2°W
Report Text: KLOT 221515Z AUTO 21010KT 7SM OVC013 05/02 A3001 RMK AO2 T00450024
Loading
Personal Weather Stations






























Interactive Weather Map New forecast layout! Learn more

10-Day Weather Forecast

Advertisements
Track Severe Weather on mobile